map of SAP home
SAP - Airport
Location
City:  San Pedro Sula, Cortés, Honduras
Near (Alt.):La Lima
Name:Ramón Villeda Morales International Airport
Old (Alt.):La Mesa International Airport
ICAO:MHLM
IATA:SAP

Details
Type:Airport (Aerodrome, Airfield)
Use:Public/Civil, International (customs port of entry)
Latitude:15°27'07"N (15.451958)
Longitude:87°55'27"W (-87.924152)
Elevation:3 ft (1 m)
Variation:0.61°W (WMM2015 magnetic declination)
-0.14° annual change
Runways:1
Longest:9206 × 148 ft (2806 × 45 m), paved

Time
Time Zone:UTC-6
Local Time:

Weather
METAR:MHLM 121300Z 14002KT 4000 VCSH FEW004 SCT022 OVC080 18/18 Q1021 A3015 NOSIG

Related Locations
Nearby:
Farthest:CCK: 12052 mi / 19396 km
West Island (Pulau Panjang) [Cocos (Keeling) Islands], CC

Find:

   beyond  
but within

Other Information
Maps:
NOTAMs:
Links:
Sources:

  
  • flag of Honduras
  • flag of San Pedro Sula
  

Airport Diagram

Airport diagram for SAP

Airport diagram PDF

Sectional Chart

Flight Planning
at skyvector.com

Satellite Image

Google Maps Satellite view

 

Copyright © 2004-2018 Karl L. Swartz. All rights reserved.
The Great Circle Mapper name and logo are trademarks of the Great Circle Mapper.
All other trademarks mentioned herein belong to their respective owners.
Please see credits for attibutions and further copyright information.

  Follow gcmap on Facebook Follow gcmap on Twitter Follow gcmap on Google+ GCmap on LinkedIn

hCard Microformat

Geo Microformat